Time;durP1;ratioP1;P1;durP2;ratioP2;P2;SDS_P1;SDS_P2;PMS_P1;PMS_P2;Temp;Humidity;BMP_temperature;BMP_pressure;BME280_temperature;BME280_humidity;BME280_pressure;Samples;Min_cycle;Max_cycle;Signal;HPM_P1;HPM_P2
2022/04/07 00:01:08;;;;;;;3.85;1.13;;;12.20;90.80;;;;;;4982892;28;20218;-83
2022/04/07 00:03:34;;;;;;;2.57;1.10;;;12.20;91.10;;;;;;5011785;28;20470;-81
2022/04/07 00:06:00;;;;;;;3.08;0.90;;;12.20;91.20;;;;;;4995476;28;20366;-81
2022/04/07 00:08:26;;;;;;;3.35;1.15;;;12.20;90.90;;;;;;4975580;28;20018;-82
2022/04/07 00:10:52;;;;;;;4.07;1.10;;;12.20;90.90;;;;;;4980469;28;20421;-82
2022/04/07 00:13:17;;;;;;;2.77;1.10;;;12.30;91.10;;;;;;4966546;28;20372;-81
2022/04/07 00:15:43;;;;;;;3.05;1.10;;;12.30;90.80;;;;;;4979111;28;20065;-82
2022/04/07 00:18:09;;;;;;;3.23;1.20;;;12.30;90.80;;;;;;4982489;28;20037;-80
2022/04/07 00:20:35;;;;;;;3.03;1.10;;;12.30;90.90;;;;;;4978697;28;20275;-82
2022/04/07 00:23:03;;;;;;;2.55;1.20;;;12.30;90.90;;;;;;4976748;28;20026;-81
2022/04/07 00:25:30;;;;;;;3.05;1.20;;;12.30;90.70;;;;;;4983031;28;20045;-82
2022/04/07 00:27:55;;;;;;;3.95;1.45;;;12.40;90.70;;;;;;5001305;28;20084;-82
2022/04/07 00:30:21;;;;;;;2.97;1.07;;;12.40;90.80;;;;;;4993463;28;20219;-82
2022/04/07 00:32:48;;;;;;;1.75;1.17;;;12.50;90.70;;;;;;4982850;28;20480;-82
2022/04/07 00:35:15;;;;;;;2.53;1.27;;;12.50;90.40;;;;;;4992411;28;20259;-82
2022/04/07 00:37:41;;;;;;;3.60;1.27;;;12.50;90.50;;;;;;4978241;28;20402;-82
2022/04/07 00:40:09;;;;;;;2.97;1.10;;;12.50;90.70;;;;;;4963561;28;20034;-81
2022/04/07 00:42:47;;;;;;;3.78;1.17;;;12.50;90.50;;;;;;4985007;28;20584;-82
2022/04/07 00:45:14;;;;;;;2.67;1.20;;;12.50;90.40;;;;;;4993570;28;20151;-81
2022/04/07 00:47:42;;;;;;;3.35;1.40;;;12.50;90.30;;;;;;4991099;28;20489;-82
2022/04/07 00:50:09;;;;;;;5.60;1.40;;;12.50;90.20;;;;;;4991760;28;20151;-82
2022/04/07 00:52:39;;;;;;;3.35;1.42;;;12.50;90.60;;;;;;5013957;28;20458;-81
2022/04/07 00:55:06;;;;;;;2.00;1.02;;;12.40;90.50;;;;;;4967106;28;20107;-81
2022/04/07 00:57:32;;;;;;;3.60;1.20;;;12.50;90.30;;;;;;4999368;28;20478;-82
2022/04/07 00:59:58;;;;;;;2.22;1.20;;;12.50;90.40;;;;;;5004706;28;20117;-82
2022/04/07 01:02:23;;;;;;;2.10;1.00;;;12.50;90.30;;;;;;4974695;28;20084;-82
2022/04/07 01:04:49;;;;;;;2.53;0.98;;;12.50;90.50;;;;;;4997296;28;20034;-83
2022/04/07 01:07:15;;;;;;;3.63;1.20;;;12.50;90.70;;;;;;4978775;28;20296;-83
2022/04/07 01:09:41;;;;;;;3.83;1.20;;;12.60;90.60;;;;;;4980507;28;20084;-83
2022/04/07 01:12:07;;;;;;;4.87;1.10;;;12.60;90.30;;;;;;4965916;28;20514;-82
2022/04/07 01:14:33;;;;;;;2.10;1.15;;;12.60;90.50;;;;;;4990784;28;20025;-83
2022/04/07 01:16:58;;;;;;;1.63;1.10;;;12.60;91.00;;;;;;4994928;28;20482;-81
2022/04/07 01:19:24;;;;;;;2.13;1.10;;;12.60;90.90;;;;;;4987518;28;20026;-82
2022/04/07 01:21:50;;;;;;;3.83;1.10;;;12.70;90.40;;;;;;4996907;28;20152;-82
2022/04/07 01:24:18;;;;;;;2.75;1.20;;;12.70;90.30;;;;;;4995563;28;20716;-82
2022/04/07 01:26:46;;;;;;;2.45;1.10;;;12.70;90.30;;;;;;4980912;28;20026;-83
2022/04/07 01:29:16;;;;;;;2.42;1.20;;;12.70;90.40;;;;;;4992619;28;20774;-82
2022/04/07 01:31:43;;;;;;;1.98;1.00;;;12.80;90.30;;;;;;4996851;28;20044;-82
2022/04/07 01:34:16;;;;;;;2.37;1.27;;;12.80;91.00;;;;;;4990332;28;20050;-82
2022/04/07 01:36:45;;;;;;;4.10;1.30;;;12.80;89.70;;;;;;4980661;28;20038;-82
2022/04/07 01:39:13;;;;;;;3.38;1.58;;;12.80;90.10;;;;;;4995008;28;20116;-83
2022/04/07 01:41:40;;;;;;;5.13;1.50;;;12.80;90.50;;;;;;4964597;28;20022;-82
2022/04/07 01:44:09;;;;;;;5.10;1.70;;;12.80;90.50;;;;;;4965483;28;20115;-82
2022/04/07 01:46:36;;;;;;;5.07;1.50;;;12.80;90.20;;;;;;4990358;28;20026;-83
2022/04/07 01:49:02;;;;;;;2.53;1.35;;;12.80;89.80;;;;;;4977965;28;20067;-83
2022/04/07 01:51:29;;;;;;;3.47;1.60;;;12.80;90.20;;;;;;4998161;28;20569;-82
2022/04/07 01:53:56;;;;;;;1.98;1.10;;;12.90;90.20;;;;;;4998030;28;20026;-82
2022/04/07 01:56:22;;;;;;;4.20;1.70;;;12.90;90.70;;;;;;4996255;28;20381;-82
2022/04/07 01:58:48;;;;;;;3.73;1.63;;;12.90;89.80;;;;;;4991415;28;20042;-82
2022/04/07 02:01:15;;;;;;;3.25;1.30;;;12.90;90.30;;;;;;4993604;28;20628;-82
2022/04/07 02:03:40;;;;;;;4.40;1.55;;;12.90;90.10;;;;;;5011844;28;20040;-82
2022/04/07 02:06:17;;;;;;;2.88;1.40;;;12.90;89.50;;;;;;4988845;28;20238;-82
2022/04/07 02:08:44;;;;;;;3.77;1.37;;;12.90;89.70;;;;;;4980407;28;20117;-82
2022/04/07 02:11:11;;;;;;;5.47;1.30;;;12.90;90.00;;;;;;5013909;28;20294;-83
2022/04/07 02:13:40;;;;;;;3.70;1.50;;;12.90;90.40;;;;;;4978836;28;20385;-83
2022/04/07 02:16:10;;;;;;;6.00;1.60;;;12.90;89.50;;;;;;4971831;28;20549;-82
2022/04/07 02:18:36;;;;;;;3.58;1.50;;;12.90;89.70;;;;;;4996234;28;20026;-83
2022/04/07 02:21:03;;;;;;;3.17;1.27;;;12.90;90.00;;;;;;4967836;28;20033;-83
2022/04/07 02:23:29;;;;;;;3.60;1.35;;;12.90;90.10;;;;;;5013432;28;20014;-83
2022/04/07 02:25:55;;;;;;;3.97;1.30;;;12.90;89.40;;;;;;5010836;28;20111;-82
2022/04/07 02:28:20;;;;;;;5.67;1.40;;;13.00;89.70;;;;;;4996042;28;20305;-82
2022/04/07 02:30:47;;;;;;;4.18;1.38;;;13.00;90.40;;;;;;4948203;28;20087;-82
2022/04/07 02:33:13;;;;;;;3.60;1.02;;;12.90;89.60;;;;;;4987491;28;20388;-83
2022/04/07 02:35:39;;;;;;;3.75;1.30;;;12.90;89.90;;;;;;4996200;28;20059;-83
2022/04/07 02:38:05;;;;;;;2.80;1.13;;;12.90;89.80;;;;;;4989931;28;20021;-82
2022/04/07 02:40:31;;;;;;;3.65;1.30;;;12.90;89.00;;;;;;5012297;28;20342;-83
2022/04/07 02:42:56;;;;;;;3.27;1.53;;;13.00;90.00;;;;;;4993876;28;20120;-83
2022/04/07 02:45:22;;;;;;;4.03;1.20;;;12.90;89.00;;;;;;4976838;28;20273;-83
2022/04/07 02:47:48;;;;;;;3.47;1.30;;;12.90;88.90;;;;;;4990966;28;20481;-83
2022/04/07 02:50:16;;;;;;;3.40;1.40;;;12.90;87.90;;;;;;4993145;28;20034;-82
2022/04/07 02:52:42;;;;;;;4.38;1.45;;;12.90;88.90;;;;;;4986203;28;20243;-82
2022/04/07 02:55:08;;;;;;;2.50;1.25;;;12.90;89.40;;;;;;4993439;28;20131;-82
2022/04/07 02:57:35;;;;;;;3.28;1.40;;;12.90;89.40;;;;;;5012406;28;20393;-83
2022/04/07 03:00:03;;;;;;;2.87;1.27;;;12.90;90.20;;;;;;4977966;28;20121;-82
2022/04/07 03:02:29;;;;;;;3.58;1.25;;;12.90;89.10;;;;;;4983720;28;20018;-84
2022/04/07 03:04:54;;;;;;;4.10;1.33;;;12.90;89.20;;;;;;4986026;28;20032;-83
2022/04/07 03:07:20;;;;;;;1.53;1.00;;;12.90;88.70;;;;;;4968536;28;20069;-82
2022/04/07 03:09:46;;;;;;;2.58;1.20;;;12.90;90.10;;;;;;4996225;28;20054;-83
2022/04/07 03:12:13;;;;;;;2.53;1.27;;;12.90;90.00;;;;;;4994121;28;20197;-83
2022/04/07 03:14:40;;;;;;;1.55;1.08;;;13.00;89.90;;;;;;4994933;28;20038;-83
2022/04/07 03:17:06;;;;;;;3.40;1.35;;;13.00;90.20;;;;;;4945505;28;21269;-82
2022/04/07 03:19:32;;;;;;;3.75;1.38;;;12.90;89.80;;;;;;4987501;28;20033;-83
2022/04/07 03:21:58;;;;;;;2.10;1.10;;;12.90;88.90;;;;;;4997704;28;20091;-84
2022/04/07 03:24:24;;;;;;;4.90;1.40;;;12.90;90.00;;;;;;4982799;28;20991;-83
2022/04/07 03:26:51;;;;;;;4.40;1.38;;;12.90;89.00;;;;;;4978421;28;20613;-83
2022/04/07 03:29:19;;;;;;;3.80;1.33;;;13.00;89.70;;;;;;4993142;28;20235;-83
2022/04/07 03:31:45;;;;;;;2.67;1.20;;;13.00;89.70;;;;;;4979889;28;20629;-82
2022/04/07 03:34:11;;;;;;;2.50;1.20;;;13.00;89.20;;;;;;4980397;28;20104;-83
2022/04/07 03:36:37;;;;;;;1.70;1.08;;;13.00;89.60;;;;;;4996082;28;20034;-82
2022/04/07 03:39:03;;;;;;;3.07;1.27;;;13.00;89.70;;;;;;4980635;28;20490;-83
2022/04/07 03:41:29;;;;;;;2.33;1.00;;;13.00;90.10;;;;;;4978936;28;20276;-82
2022/04/07 03:43:58;;;;;;;1.30;1.02;;;13.00;89.90;;;;;;4992870;28;20048;-82
2022/04/07 03:46:24;;;;;;;2.80;1.10;;;13.00;89.00;;;;;;4981554;28;20336;-83
2022/04/07 03:48:51;;;;;;;1.48;1.00;;;13.00;89.20;;;;;;4988862;28;20125;-83
2022/04/07 03:51:17;;;;;;;1.40;0.90;;;13.00;89.40;;;;;;4986634;28;20285;-83
2022/04/07 03:53:44;;;;;;;1.00;0.90;;;12.90;89.40;;;;;;4995256;28;20034;-83
2022/04/07 03:56:10;;;;;;;1.45;0.90;;;12.90;89.40;;;;;;4983406;28;20671;-82
2022/04/07 03:58:37;;;;;;;1.25;0.95;;;12.80;89.60;;;;;;4982084;28;20167;-83
2022/04/07 04:01:02;;;;;;;2.10;1.10;;;12.80;89.90;;;;;;4976743;28;20037;-83
2022/04/07 04:03:31;;;;;;;1.57;0.80;;;12.70;89.90;;;;;;4993723;28;20034;-82
2022/04/07 04:05:56;;;;;;;1.83;0.90;;;12.60;90.00;;;;;;4979503;28;20066;-83
2022/04/07 04:08:22;;;;;;;1.17;0.80;;;12.60;90.30;;;;;;4993755;28;20058;-83
2022/04/07 04:10:48;;;;;;;1.83;0.80;;;12.40;90.30;;;;;;4983533;28;20276;-84
2022/04/07 04:13:13;;;;;;;2.65;1.00;;;12.40;90.50;;;;;;4992216;28;20105;-83
2022/04/07 04:15:39;;;;;;;1.63;0.70;;;12.30;90.50;;;;;;4994376;28;20690;-83
2022/04/07 04:18:05;;;;;;;1.70;0.90;;;12.30;90.60;;;;;;4976017;28;20160;-83
2022/04/07 04:20:30;;;;;;;1.30;0.88;;;12.20;90.70;;;;;;4992573;28;20050;-82
2022/04/07 04:22:56;;;;;;;1.10;0.70;;;12.20;91.00;;;;;;4980995;28;20124;-83
2022/04/07 04:25:22;;;;;;;1.27;0.80;;;12.20;91.10;;;;;;4977505;28;20037;-82
2022/04/07 04:27:48;;;;;;;2.90;1.25;;;12.20;91.20;;;;;;4989622;28;20049;-83
2022/04/07 04:30:15;;;;;;;2.38;1.10;;;12.20;91.20;;;;;;4997724;28;20250;-82
2022/04/07 04:32:43;;;;;;;3.07;0.90;;;12.10;91.20;;;;;;4981028;28;20121;-84
2022/04/07 04:35:10;;;;;;;1.70;1.10;;;12.10;91.20;;;;;;5011331;28;20053;-83
2022/04/07 04:37:39;;;;;;;1.42;1.13;;;12.10;91.40;;;;;;4986786;28;20030;-83
2022/04/07 04:40:05;;;;;;;4.10;1.30;;;12.10;91.40;;;;;;4973951;28;20384;-83
2022/04/07 04:42:31;;;;;;;3.42;1.67;;;12.10;91.40;;;;;;5005732;28;20344;-83
2022/04/07 04:44:56;;;;;;;2.17;1.20;;;12.00;91.50;;;;;;4998115;28;20541;-83
2022/04/07 04:47:22;;;;;;;3.67;1.50;;;12.00;91.60;;;;;;4982223;28;20645;-82
2022/04/07 04:49:48;;;;;;;3.03;1.60;;;12.00;91.60;;;;;;4982355;28;20026;-83
2022/04/07 04:52:14;;;;;;;2.70;1.40;;;12.00;91.60;;;;;;4966327;28;20246;-83
2022/04/07 04:54:40;;;;;;;3.67;1.42;;;12.00;91.70;;;;;;5017756;28;20509;-82
2022/04/07 04:57:06;;;;;;;3.55;1.40;;;12.00;91.70;;;;;;4985331;28;20616;-83
2022/04/07 04:59:32;;;;;;;4.32;1.60;;;11.90;91.70;;;;;;4980781;28;20050;-83
2022/04/07 05:01:58;;;;;;;4.38;1.77;;;12.00;91.70;;;;;;4983908;28;20034;-82
2022/04/07 05:04:24;;;;;;;4.87;1.40;;;11.90;91.60;;;;;;4962070;28;20503;-83
2022/04/07 05:06:49;;;;;;;3.75;1.38;;;12.00;91.70;;;;;;5001942;28;20454;-82
2022/04/07 05:09:15;;;;;;;5.23;1.33;;;12.00;91.80;;;;;;4984264;28;20429;-83
2022/04/07 05:11:41;;;;;;;2.55;1.10;;;12.00;91.60;;;;;;4980128;28;20241;-83
2022/04/07 05:14:07;;;;;;;2.93;1.27;;;12.00;92.20;;;;;;4973875;28;20770;-83
2022/04/07 05:16:33;;;;;;;5.20;1.40;;;12.00;91.80;;;;;;4978318;28;20029;-83
2022/04/07 05:18:58;;;;;;;3.53;1.25;;;12.10;91.60;;;;;;4981983;28;20424;-83
2022/04/07 05:21:24;;;;;;;2.77;1.10;;;12.10;91.70;;;;;;4972377;28;20437;-84
2022/04/07 05:23:50;;;;;;;5.28;1.30;;;12.10;91.60;;;;;;4966311;28;20166;-83
2022/04/07 05:26:15;;;;;;;2.90;1.00;;;12.10;91.50;;;;;;4981316;28;20519;-83
2022/04/07 05:28:42;;;;;;;4.28;1.20;;;12.10;91.00;;;;;;4988524;28;20254;-82
2022/04/07 05:31:08;;;;;;;5.33;1.03;;;12.10;91.10;;;;;;4998894;28;20033;-83
2022/04/07 05:33:34;;;;;;;2.33;1.00;;;12.20;90.90;;;;;;4975524;28;20371;-82
2022/04/07 05:36:00;;;;;;;1.85;1.00;;;12.20;91.30;;;;;;4985450;28;20037;-84
2022/04/07 05:38:25;;;;;;;3.23;0.90;;;12.20;90.50;;;;;;4978445;28;20091;-83
2022/04/07 05:40:51;;;;;;;3.50;0.90;;;12.20;90.90;;;;;;4984386;28;20812;-82
2022/04/07 05:43:17;;;;;;;2.58;0.75;;;12.20;90.70;;;;;;4992764;28;20309;-82
2022/04/07 05:45:45;;;;;;;2.13;0.80;;;12.30;91.10;;;;;;4986238;28;20239;-83
2022/04/07 05:48:12;;;;;;;4.18;0.90;;;12.30;90.90;;;;;;5004586;28;20029;-82
2022/04/07 05:50:38;;;;;;;3.45;1.10;;;12.30;90.70;;;;;;4977643;28;20255;-82
2022/04/07 05:53:04;;;;;;;4.40;1.30;;;12.30;90.50;;;;;;4998731;28;20292;-83
2022/04/07 05:55:30;;;;;;;4.70;1.27;;;12.30;90.50;;;;;;4965499;28;20034;-83
2022/04/07 05:57:55;;;;;;;2.57;1.10;;;12.30;90.60;;;;;;5004018;28;20296;-84
2022/04/07 06:00:21;;;;;;;2.15;1.10;;;12.40;90.60;;;;;;5000838;28;20044;-81
2022/04/07 06:02:48;;;;;;;5.50;1.70;;;12.40;90.80;;;;;;5005564;28;20243;-82
2022/04/07 06:05:18;;;;;;;3.13;1.02;;;12.30;90.20;;;;;;4978112;28;20374;-82
2022/04/07 06:07:46;;;;;;;4.82;1.20;;;12.30;90.50;;;;;;5012975;28;20560;-82
2022/04/07 06:10:12;;;;;;;2.83;1.00;;;12.30;90.20;;;;;;4998353;28;20032;-82
2022/04/07 06:12:42;;;;;;;5.32;1.63;;;12.20;90.60;;;;;;4963256;28;20143;-83
2022/04/07 06:15:12;;;;;;;4.63;1.50;;;12.20;90.60;;;;;;4986886;28;20030;-83
2022/04/07 06:17:42;;;;;;;2.70;1.08;;;12.10;90.60;;;;;;5001682;28;20058;-82
2022/04/07 06:20:12;;;;;;;3.10;1.15;;;12.10;90.90;;;;;;4997906;28;20034;-82
2022/04/07 06:22:42;;;;;;;4.77;1.50;;;12.00;91.20;;;;;;4980678;28;20207;-84
2022/04/07 06:25:09;;;;;;;3.10;1.20;;;12.00;91.20;;;;;;4985879;28;20109;-83
2022/04/07 06:27:39;;;;;;;3.80;1.50;;;11.90;91.40;;;;;;4973572;28;20239;-82
2022/04/07 06:30:06;;;;;;;6.78;1.42;;;11.90;91.60;;;;;;5013298;28;20478;-83
2022/04/07 06:32:32;;;;;;;1.80;1.10;;;11.90;91.70;;;;;;4968001;28;20644;-83
2022/04/07 06:34:58;;;;;;;2.93;1.50;;;11.90;92.30;;;;;;4980770;28;20038;-83
2022/04/07 06:37:25;;;;;;;2.80;1.73;;;11.90;92.20;;;;;;4981688;28;20065;-83
2022/04/07 06:39:50;;;;;;;2.45;1.52;;;11.90;92.30;;;;;;4997819;28;20029;-83
2022/04/07 06:42:16;;;;;;;6.27;2.07;;;11.90;92.30;;;;;;4971496;28;20037;-84
2022/04/07 06:44:42;;;;;;;2.87;1.50;;;11.90;92.50;;;;;;4982879;28;20925;-83
2022/04/07 06:47:08;;;;;;;4.10;1.80;;;12.00;92.50;;;;;;4992013;28;20430;-83
2022/04/07 06:49:33;;;;;;;2.60;1.27;;;12.00;92.50;;;;;;4976653;28;20167;-82
2022/04/07 06:51:59;;;;;;;5.45;1.90;;;12.00;92.50;;;;;;4981432;28;20498;-83
2022/04/07 06:54:25;;;;;;;2.30;1.27;;;12.10;92.60;;;;;;4993932;28;20026;-83
2022/04/07 06:56:50;;;;;;;3.08;1.48;;;12.10;92.60;;;;;;4977299;28;20037;-83
2022/04/07 06:59:16;;;;;;;6.40;1.70;;;12.10;92.70;;;;;;4979936;28;20037;-85
2022/04/07 07:01:41;;;;;;;3.83;1.48;;;12.10;92.70;;;;;;4970013;28;20307;-83
2022/04/07 07:04:07;;;;;;;2.63;1.40;;;12.10;92.80;;;;;;4993075;28;20036;-83
2022/04/07 07:06:33;;;;;;;2.78;1.40;;;12.20;92.90;;;;;;4998700;28;20021;-84
2022/04/07 07:08:59;;;;;;;2.97;1.73;;;12.20;92.90;;;;;;4974920;28;20046;-83
2022/04/07 07:11:24;;;;;;;2.83;1.30;;;12.20;92.70;;;;;;4996873;28;20029;-83
2022/04/07 07:13:50;;;;;;;2.73;1.30;;;12.30;93.00;;;;;;4993513;28;20034;-82
2022/04/07 07:16:15;;;;;;;2.17;1.40;;;12.30;93.10;;;;;;4972345;28;20485;-83
2022/04/07 07:18:42;;;;;;;1.95;1.10;;;12.30;93.10;;;;;;4995952;28;20503;-83
2022/04/07 07:21:08;;;;;;;3.50;1.10;;;12.40;93.10;;;;;;5004631;28;20390;-84
2022/04/07 07:23:34;;;;;;;1.67;0.97;;;12.50;93.20;;;;;;4972185;28;20621;-83
2022/04/07 07:26:00;;;;;;;3.13;1.10;;;12.50;93.30;;;;;;4995759;28;20080;-83
2022/04/07 07:28:25;;;;;;;2.30;1.10;;;12.50;93.20;;;;;;4999191;28;20263;-84
2022/04/07 07:30:51;;;;;;;2.70;1.00;;;12.50;93.20;;;;;;4963146;28;20495;-83
2022/04/07 07:33:17;;;;;;;1.70;0.90;;;12.60;93.30;;;;;;4985008;28;20029;-83
2022/04/07 07:35:45;;;;;;;1.17;0.80;;;12.60;93.30;;;;;;4991335;28;20521;-84
2022/04/07 07:38:12;;;;;;;2.53;0.80;;;12.60;93.40;;;;;;5013555;28;20026;-84
2022/04/07 07:40:38;;;;;;;1.15;0.70;;;12.60;93.40;;;;;;4978427;28;20347;-84
2022/04/07 07:43:03;;;;;;;1.90;0.80;;;12.60;93.40;;;;;;4974306;28;20545;-82
2022/04/07 07:45:32;;;;;;;1.73;0.70;;;12.60;93.50;;;;;;4989998;28;20279;-84
2022/04/07 07:47:57;;;;;;;1.48;0.95;;;12.60;93.50;;;;;;4987387;28;20357;-84
2022/04/07 07:50:23;;;;;;;0.87;0.70;;;12.60;93.70;;;;;;4956319;28;20216;-84
2022/04/07 07:52:49;;;;;;;1.08;0.70;;;12.70;93.80;;;;;;4978979;28;20069;-83
2022/04/07 07:55:15;;;;;;;1.58;0.80;;;12.70;93.90;;;;;;4962949;28;20068;-83
2022/04/07 07:57:41;;;;;;;0.95;0.70;;;12.70;94.00;;;;;;4983651;28;20041;-83
2022/04/07 08:00:09;;;;;;;0.63;0.60;;;12.70;93.90;;;;;;5016468;28;20025;-83
2022/04/07 08:02:36;;;;;;;0.75;0.55;;;12.70;94.00;;;;;;4994671;28;20300;-82
2022/04/07 08:05:02;;;;;;;0.60;0.60;;;12.70;94.00;;;;;;4971886;28;20974;-81
2022/04/07 08:07:28;;;;;;;1.57;0.47;;;12.70;94.10;;;;;;4980956;28;20030;-82
2022/04/07 08:09:58;;;;;;;0.60;0.40;;;12.70;94.30;;;;;;4995661;28;20489;-80
2022/04/07 08:12:27;;;;;;;1.15;0.40;;;12.70;93.90;;;;;;4960928;28;20080;-82
2022/04/07 08:14:53;;;;;;;1.02;0.40;;;12.70;93.80;;;;;;5000797;28;20505;-83
2022/04/07 08:17:20;;;;;;;0.80;0.50;;;12.70;94.10;;;;;;4985793;28;20652;-83
2022/04/07 08:19:46;;;;;;;0.90;0.50;;;12.70;94.10;;;;;;4986223;28;20030;-82
2022/04/07 08:22:12;;;;;;;0.75;0.50;;;12.70;94.10;;;;;;5005048;28;20075;-84
2022/04/07 08:24:38;;;;;;;1.20;0.40;;;12.70;94.20;;;;;;4987822;28;20095;-82
2022/04/07 08:27:07;;;;;;;0.93;0.63;;;12.70;94.10;;;;;;5016331;28;20636;-84
2022/04/07 08:29:33;;;;;;;1.38;0.40;;;12.70;93.90;;;;;;4991150;28;20566;-82
2022/04/07 08:31:59;;;;;;;0.50;0.50;;;12.70;93.90;;;;;;4999506;28;20030;-82
2022/04/07 08:34:25;;;;;;;0.60;0.40;;;12.70;93.90;;;;;;4973478;28;20065;-83
2022/04/07 08:36:52;;;;;;;0.40;0.40;;;12.70;93.90;;;;;;4990919;28;20026;-83
2022/04/07 08:39:18;;;;;;;0.47;0.40;;;12.70;93.70;;;;;;4989206;28;20026;-81
2022/04/07 08:41:45;;;;;;;0.95;0.50;;;12.70;93.30;;;;;;5006902;28;20037;-83
2022/04/07 08:44:12;;;;;;;0.63;0.40;;;12.60;92.80;;;;;;4979436;28;20033;-84
2022/04/07 08:46:39;;;;;;;0.40;0.37;;;12.60;92.30;;;;;;4998176;28;20491;-83
2022/04/07 08:49:07;;;;;;;0.57;0.32;;;12.50;92.30;;;;;;4985094;28;20041;-85
2022/04/07 08:51:33;;;;;;;1.65;0.40;;;12.40;92.90;;;;;;4989105;28;20606;-82
2022/04/07 08:53:59;;;;;;;0.50;0.50;;;12.40;93.50;;;;;;5001549;28;20034;-84
2022/04/07 08:56:25;;;;;;;0.93;0.50;;;12.40;94.00;;;;;;5009389;28;20026;-85
2022/04/07 08:58:53;;;;;;;0.90;0.67;;;12.50;94.50;;;;;;4999877;28;20037;-85
2022/04/07 09:01:19;;;;;;;1.50;0.55;;;12.60;94.60;;;;;;4965947;28;20231;-85
2022/04/07 09:03:45;;;;;;;1.50;0.50;;;12.60;94.70;;;;;;4983341;28;20120;-83
2022/04/07 09:06:13;;;;;;;1.02;0.60;;;12.70;94.60;;;;;;4960898;28;20042;-84
2022/04/07 09:08:40;;;;;;;0.73;0.50;;;12.80;94.30;;;;;;4994206;28;20346;-84
2022/04/07 09:11:08;;;;;;;0.65;0.50;;;12.90;93.80;;;;;;4997588;28;20180;-85
2022/04/07 09:13:40;;;;;;;1.98;0.50;;;13.00;94.20;;;;;;5014643;28;20087;-85
2022/04/07 09:16:10;;;;;;;1.23;0.43;;;13.10;94.50;;;;;;4979271;28;20038;-85
2022/04/07 09:18:36;;;;;;;0.47;0.40;;;13.30;94.70;;;;;;4988544;28;20678;-82
2022/04/07 09:21:15;;;;;;;1.17;0.40;;;13.40;94.90;;;;;;4966575;28;20134;-83
2022/04/07 09:23:41;;;;;;;0.60;0.40;;;13.60;95.00;;;;;;4997986;28;20119;-83
2022/04/07 09:26:15;;;;;;;1.15;0.40;;;13.80;95.10;;;;;;4989221;28;20022;-83
2022/04/07 09:28:41;;;;;;;1.23;0.50;;;14.00;93.80;;;;;;5001648;28;20363;-84
2022/04/07 09:31:10;;;;;;;1.00;0.60;;;14.20;94.70;;;;;;4983883;28;20033;-83
2022/04/07 09:33:36;;;;;;;1.43;0.70;;;14.40;94.60;;;;;;5001423;28;20244;-85
2022/04/07 09:36:07;;;;;;;1.77;0.50;;;14.70;95.20;;;;;;5004950;28;20091;-85
2022/04/07 09:38:35;;;;;;;1.48;0.60;;;14.90;94.80;;;;;;5004119;28;20427;-87
2022/04/07 09:41:10;;;;;;;1.55;0.70;;;15.20;94.70;;;;;;5010365;28;20563;-85
2022/04/07 09:43:59;;;;;;;1.97;0.60;;;15.50;93.30;;;;;;5007348;28;20049;-86
2022/04/07 09:46:26;;;;;;;1.73;0.60;;;15.90;91.60;;;;;;4977169;28;20387;-85
2022/04/07 09:49:13;;;;;;;0.77;0.60;;;16.30;95.70;;;;;;4991074;28;20034;-84
2022/04/07 09:51:50;;;;;;;1.63;0.60;;;16.80;95.20;;;;;;5001318;28;20034;-85
2022/04/07 09:54:18;;;;;;;1.38;0.70;;;17.30;94.70;;;;;;4984484;28;20093;-85
2022/04/07 09:56:47;;;;;;;1.80;0.60;;;17.80;95.30;;;;;;4997806;28;20124;-86
2022/04/07 09:59:18;;;;;;;2.63;0.70;;;18.20;93.00;;;;;;5003583;28;20374;-86
2022/04/07 10:01:44;;;;;;;1.05;0.40;;;18.50;93.20;;;;;;4968444;28;20372;-83
2022/04/07 10:04:10;;;;;;;1.25;0.60;;;18.90;92.30;;;;;;4999503;28;20084;-84
2022/04/07 10:06:40;;;;;;;1.33;0.60;;;19.20;91.40;;;;;;4980074;28;20178;-85
2022/04/07 10:09:08;;;;;;;1.25;0.50;;;19.40;90.10;;;;;;4978539;28;20037;-84
2022/04/07 10:11:35;;;;;;;1.92;0.80;;;19.60;90.40;;;;;;4985760;28;20142;-86
2022/04/07 10:14:01;;;;;;;1.73;0.73;;;19.70;87.90;;;;;;5005197;28;20173;-85
2022/04/07 10:16:27;;;;;;;1.90;0.63;;;19.90;85.00;;;;;;4974085;28;20242;-86
2022/04/07 10:19:09;;;;;;;1.90;0.60;;;20.00;86.70;;;;;;4991547;28;20026;-85
2022/04/07 10:22:17;;;;;;;1.85;0.75;;;20.10;84.80;;;;;;5013112;28;20304;-85
2022/04/07 10:24:54;;;;;;;2.05;0.65;;;20.40;79.70;;;;;;4991614;28;20040;-86
2022/04/07 10:27:23;;;;;;;2.77;0.60;;;20.70;86.80;;;;;;4987467;28;21124;-86
2022/04/07 10:30:11;;;;;;;1.75;0.70;;;20.80;80.00;;;;;;4997919;28;20612;-85
2022/04/07 10:32:39;;;;;;;2.40;0.70;;;20.90;76.00;;;;;;4985099;28;20037;-85
2022/04/07 10:35:05;;;;;;;2.20;0.70;;;20.80;83.20;;;;;;4979723;28;20471;-85
2022/04/07 10:37:51;;;;;;;1.80;0.73;;;20.90;86.50;;;;;;5007228;28;20063;-84
2022/04/07 10:40:50;;;;;;;2.27;0.80;;;21.00;71.20;;;;;;4983464;28;20370;-85
2022/04/07 10:43:17;;;;;;;2.58;0.70;;;21.00;71.30;;;;;;4974686;28;20030;-87
2022/04/07 10:45:47;;;;;;;4.57;0.70;;;21.10;82.10;;;;;;5011502;28;20037;-85
2022/04/07 10:48:16;;;;;;;2.13;0.60;;;21.10;76.00;;;;;;4976411;28;20034;-85
2022/04/07 10:51:09;;;;;;;3.55;0.90;;;21.10;77.00;;;;;;4995709;28;20560;-85
2022/04/07 10:53:37;;;;;;;2.93;0.77;;;21.10;76.30;;;;;;4994590;28;20046;-85
2022/04/07 10:56:07;;;;;;;2.50;1.00;;;21.00;82.20;;;;;;4989226;28;20036;-86
2022/04/07 10:58:50;;;;;;;2.42;0.80;;;21.00;82.50;;;;;;4999653;28;20052;-85
2022/04/07 11:01:28;;;;;;;2.90;0.80;;;21.10;66.80;;;;;;4993025;28;20230;-86
2022/04/07 11:04:16;;;;;;;2.17;0.90;;;21.20;81.10;;;;;;4976667;28;20033;-86
2022/04/07 11:07:04;;;;;;;3.17;0.80;;;21.20;76.10;;;;;;5012573;28;20030;-87
2022/04/07 11:09:45;;;;;;;2.38;0.77;;;21.30;73.30;;;;;;5006831;28;20053;-87
2022/04/07 11:12:28;;;;;;;1.80;0.93;;;21.30;65.00;;;;;;4987906;28;20274;-85
2022/04/07 11:15:32;;;;;;;2.70;0.80;;;21.30;78.30;;;;;;5004721;28;20161;-85
2022/04/07 11:18:23;;;;;;;4.40;0.90;;;21.20;68.90;;;;;;4989519;28;20347;-86
2022/04/07 11:21:10;;;;;;;2.90;1.00;;;21.00;62.80;;;;;;4965564;28;20026;-83
2022/04/07 11:23:41;;;;;;;3.05;0.88;;;21.00;70.70;;;;;;4994322;28;20029;-87
2022/04/07 11:26:12;;;;;;;3.83;0.80;;;21.10;76.70;;;;;;4980965;28;20645;-86
2022/04/07 11:28:38;;;;;;;2.75;0.88;;;21.20;75.50;;;;;;4966839;28;20107;-86
2022/04/07 11:31:05;;;;;;;2.35;1.10;;;21.20;78.80;;;;;;4975799;28;20494;-86
2022/04/07 11:33:39;;;;;;;4.17;0.83;;;21.20;77.60;;;;;;4977117;28;20030;-84
2022/04/07 11:36:06;;;;;;;3.80;1.00;;;21.20;73.20;;;;;;4969501;28;20528;-86
2022/04/07 11:38:37;;;;;;;3.63;0.90;;;21.00;73.60;;;;;;4993547;28;20502;-86
2022/04/07 11:41:06;;;;;;;4.30;1.10;;;21.00;75.70;;;;;;4965480;28;20739;-88
2022/04/07 11:43:34;;;;;;;3.85;1.00;;;21.00;68.00;;;;;;4985111;28;20068;-86
2022/04/07 11:46:02;;;;;;;4.00;0.93;;;20.90;75.80;;;;;;4973917;28;20052;-85
2022/04/07 11:48:33;;;;;;;3.15;1.00;;;20.90;77.80;;;;;;4978987;28;20026;-86
2022/04/07 11:51:02;;;;;;;3.78;1.02;;;21.00;76.50;;;;;;4957208;28;20777;-86
2022/04/07 11:53:28;;;;;;;3.70;1.10;;;21.00;75.40;;;;;;4994081;28;20029;-87
2022/04/07 11:55:54;;;;;;;2.80;1.00;;;20.90;72.70;;;;;;4984235;28;20119;-87
2022/04/07 11:58:20;;;;;;;4.37;1.10;;;20.80;71.90;;;;;;4965452;28;20025;-86
2022/04/07 12:00:46;;;;;;;3.75;0.95;;;20.70;68.40;;;;;;5007952;28;20112;-86
2022/04/07 12:03:12;;;;;;;3.80;0.98;;;20.50;69.90;;;;;;4975150;28;20228;-86
2022/04/07 12:05:39;;;;;;;3.47;1.10;;;20.20;71.80;;;;;;4993256;28;20036;-84
2022/04/07 12:08:13;;;;;;;3.88;0.90;;;20.10;71.70;;;;;;4958632;28;20382;-85
2022/04/07 12:10:43;;;;;;;3.38;1.00;;;19.90;69.50;;;;;;4977758;28;20138;-87
2022/04/07 12:13:09;;;;;;;3.40;1.20;;;19.80;68.00;;;;;;4965492;28;20053;-86
2022/04/07 12:15:36;;;;;;;3.83;1.13;;;19.50;69.60;;;;;;4987204;28;20557;-85
2022/04/07 12:18:08;;;;;;;4.53;0.93;;;19.40;70.50;;;;;;4973009;28;20041;-85
2022/04/07 12:20:38;;;;;;;4.47;1.00;;;19.20;67.50;;;;;;4998907;28;20226;-85
2022/04/07 12:23:05;;;;;;;7.78;1.23;;;19.00;67.90;;;;;;4973493;28;20037;-87
2022/04/07 12:25:32;;;;;;;4.70;1.10;;;18.80;70.20;;;;;;5007733;28;20030;-87
2022/04/07 12:28:08;;;;;;;3.38;1.10;;;18.70;71.20;;;;;;4997342;28;20061;-84
2022/04/07 12:30:48;;;;;;;5.37;1.00;;;18.50;68.30;;;;;;4961335;28;20061;-85
2022/04/07 12:33:38;;;;;;;6.30;0.93;;;18.50;66.60;;;;;;4981668;28;20524;-86
2022/04/07 12:36:08;;;;;;;2.95;1.00;;;18.50;65.90;;;;;;4989642;28;20243;-84
2022/04/07 12:38:35;;;;;;;5.63;1.10;;;18.60;73.00;;;;;;4977206;28;20438;-85
2022/04/07 12:41:15;;;;;;;4.55;1.02;;;18.60;72.90;;;;;;5008500;28;20029;-85
2022/04/07 12:43:50;;;;;;;3.53;1.10;;;18.90;70.50;;;;;;4984069;28;20451;-86
2022/04/07 12:46:17;;;;;;;4.85;1.08;;;19.10;77.80;;;;;;4967193;28;20520;-85
2022/04/07 12:49:05;;;;;;;3.00;1.00;;;19.30;76.70;;;;;;4979047;28;20465;-86
2022/04/07 12:51:38;;;;;;;3.97;0.93;;;19.60;70.40;;;;;;4996158;28;20520;-85
2022/04/07 12:54:06;;;;;;;3.92;0.90;;;19.70;77.80;;;;;;4957294;28;20331;-86